createdAt,value
2022-10-18T00:02:35.269Z,18.13
2022-10-18T00:05:23.084Z,17.71
2022-10-18T00:08:11.049Z,17.54
2022-10-18T00:10:58.925Z,17.65
2022-10-18T00:13:46.896Z,17.60
2022-10-18T00:16:34.705Z,17.69
2022-10-18T00:19:25.894Z,17.76
2022-10-18T00:22:16.581Z,17.76
2022-10-18T00:25:05.782Z,17.55
2022-10-18T00:27:53.646Z,17.49
2022-10-18T00:30:41.774Z,17.57
2022-10-18T00:33:29.812Z,17.56
2022-10-18T00:36:18.570Z,17.48
2022-10-18T00:39:08.262Z,17.53
2022-10-18T00:41:56.169Z,17.47
2022-10-18T00:44:43.901Z,16.97
2022-10-18T00:47:33.063Z,16.81
2022-10-18T00:50:22.578Z,16.65
2022-10-18T00:53:16.728Z,16.92
2022-10-18T00:56:04.928Z,17.08
2022-10-18T00:58:53.227Z,17.30
2022-10-18T01:01:41.214Z,17.47
2022-10-18T01:04:29.323Z,17.58
2022-10-18T01:07:26.328Z,17.59
2022-10-18T01:10:19.951Z,17.40
2022-10-18T01:13:13.724Z,17.05
2022-10-18T01:16:39.423Z,17.06
2022-10-18T01:19:47.489Z,17.06
2022-10-18T01:22:39.465Z,17.10
2022-10-18T01:25:57.504Z,17.18
2022-10-18T01:29:42.127Z,17.31
2022-10-18T01:32:41.484Z,17.31
2022-10-18T01:35:37.652Z,17.34
2022-10-18T01:38:26.513Z,17.45
2022-10-18T01:41:17.297Z,17.43
2022-10-18T01:44:08.761Z,17.46
2022-10-18T01:46:58.311Z,17.44
2022-10-18T01:49:46.719Z,17.40
2022-10-18T01:52:34.785Z,17.50
2022-10-18T01:55:33.693Z,17.16
2022-10-18T01:58:33.117Z,17.11
2022-10-18T02:01:42.973Z,17.22
2022-10-18T02:05:04.218Z,17.50
2022-10-18T02:08:12.218Z,17.60
2022-10-18T02:11:16.167Z,17.51
2022-10-18T02:14:09.692Z,17.57
2022-10-18T02:17:00.755Z,17.45
2022-10-18T02:19:54.863Z,17.38
2022-10-18T02:22:45.937Z,17.45
2022-10-18T02:25:35.728Z,17.21
2022-10-18T02:31:39.744Z,16.81
2022-10-18T02:34:40.607Z,16.49
2022-10-18T02:37:35.207Z,16.46
2022-10-18T02:40:23.464Z,16.64
2022-10-18T02:43:11.268Z,16.73
2022-10-18T02:45:59.190Z,16.91
2022-10-18T02:48:47.232Z,16.38
2022-10-18T02:51:35.103Z,16.59
2022-10-18T02:54:23.680Z,16.82
2022-10-18T02:57:11.463Z,17.09
2022-10-18T02:59:59.327Z,17.31
2022-10-18T03:02:47.181Z,17.46
2022-10-18T03:05:35.028Z,17.39
2022-10-18T03:08:22.934Z,17.07
2022-10-18T03:11:10.936Z,17.20
2022-10-18T03:13:58.739Z,17.13
2022-10-18T03:16:46.570Z,17.10
2022-10-18T03:19:34.405Z,17.03
2022-10-18T03:22:22.314Z,17.00
2022-10-18T03:25:10.128Z,17.16
2022-10-18T03:27:57.896Z,16.48
2022-10-18T03:30:45.805Z,15.93
2022-10-18T03:33:34.050Z,15.88
2022-10-18T03:36:22.065Z,15.79
2022-10-18T03:39:12.575Z,15.79
2022-10-18T03:42:00.507Z,15.66
2022-10-18T03:44:48.460Z,16.83
2022-10-18T03:47:36.403Z,15.84
2022-10-18T03:50:24.467Z,15.87
2022-10-18T03:53:12.589Z,15.91
2022-10-18T03:56:00.404Z,15.95
2022-10-18T03:58:48.298Z,16.08
2022-10-18T04:01:36.252Z,16.01
2022-10-18T04:04:24.209Z,16.19
2022-10-18T04:07:12.029Z,16.11
2022-10-18T04:10:00.462Z,16.30
2022-10-18T04:12:48.516Z,16.50
2022-10-18T04:15:36.397Z,16.46
2022-10-18T04:18:24.276Z,16.51
2022-10-18T04:21:12.082Z,16.42
2022-10-18T04:23:59.968Z,16.23
2022-10-18T04:26:48.033Z,16.26
2022-10-18T04:29:36.271Z,16.22
2022-10-18T04:32:24.168Z,16.26
2022-10-18T04:35:12.037Z,16.25
2022-10-18T04:37:59.858Z,15.84
2022-10-18T04:40:47.690Z,15.69
2022-10-18T04:43:35.611Z,15.74
2022-10-18T04:46:23.573Z,16.10
2022-10-18T04:49:11.457Z,16.05
2022-10-18T04:51:59.415Z,16.41
2022-10-18T04:54:47.498Z,16.16
2022-10-18T04:57:35.428Z,16.03
2022-10-18T05:00:23.574Z,16.29
2022-10-18T05:03:13.982Z,16.02
2022-10-18T05:06:02.831Z,15.60
2022-10-18T05:08:51.340Z,15.42
2022-10-18T05:11:41.987Z,15.45
2022-10-18T05:14:29.779Z,15.75
2022-10-18T05:17:17.655Z,15.61
2022-10-18T05:20:06.110Z,15.58
2022-10-18T05:22:53.983Z,15.58
2022-10-18T05:25:43.089Z,15.89
2022-10-18T05:28:39.669Z,16.20
2022-10-18T05:31:28.645Z,15.89
2022-10-18T05:34:18.068Z,15.96
2022-10-18T05:37:06.990Z,16.07
2022-10-18T05:40:00.584Z,15.89
2022-10-18T05:42:52.152Z,15.92
2022-10-18T05:45:40.181Z,15.99
2022-10-18T05:48:28.446Z,16.19
2022-10-18T05:51:16.342Z,16.36
2022-10-18T05:54:06.764Z,16.55
2022-10-18T05:56:54.838Z,16.42
2022-10-18T05:59:43.735Z,16.49
2022-10-18T06:02:31.929Z,16.58
2022-10-18T06:05:20.065Z,16.66
2022-10-18T06:08:10.271Z,16.44
2022-10-18T06:10:58.441Z,16.06
2022-10-18T06:13:55.052Z,15.69
2022-10-18T06:16:42.891Z,15.24
2022-10-18T06:19:41.368Z,15.07
2022-10-18T06:22:34.226Z,14.82
2022-10-18T06:25:22.569Z,15.18
2022-10-18T06:28:12.184Z,14.98
2022-10-18T06:31:00.390Z,14.88
2022-10-18T06:33:49.575Z,15.04
2022-10-18T06:36:37.434Z,15.21
2022-10-18T06:39:26.087Z,15.62
2022-10-18T06:42:14.798Z,15.69
2022-10-18T06:45:05.667Z,15.55
2022-10-18T06:47:53.540Z,15.43
2022-10-18T06:50:41.647Z,15.14
2022-10-18T06:53:32.913Z,15.00
2022-10-18T06:56:21.024Z,14.87
2022-10-18T06:59:11.662Z,14.84
2022-10-18T07:02:01.750Z,14.77
2022-10-18T07:04:50.164Z,14.89
2022-10-18T07:07:39.693Z,14.96
2022-10-18T07:10:34.089Z,15.22
2022-10-18T07:13:37.830Z,15.24
2022-10-18T07:16:25.845Z,15.14
2022-10-18T07:19:15.242Z,15.36
2022-10-18T07:22:03.157Z,15.66
2022-10-18T07:24:51.213Z,15.87
2022-10-18T07:27:41.388Z,16.08
2022-10-18T07:30:29.297Z,15.82
2022-10-18T07:33:17.399Z,15.54
2022-10-18T07:36:10.039Z,15.74
2022-10-18T07:38:58.563Z,15.70
2022-10-18T07:41:47.842Z,15.60
2022-10-18T07:44:39.456Z,15.78
2022-10-18T07:47:32.806Z,15.68
2022-10-18T07:50:26.385Z,15.67
2022-10-18T07:53:14.582Z,15.77
2022-10-18T07:56:11.729Z,16.37
2022-10-18T07:58:59.800Z,16.26
2022-10-18T08:01:48.174Z,16.45
2022-10-18T08:04:36.084Z,16.97
2022-10-18T08:07:24.145Z,17.00
2022-10-18T08:10:12.153Z,17.10
2022-10-18T08:13:00.213Z,17.36
2022-10-18T08:15:48.473Z,17.27
2022-10-18T08:18:37.846Z,17.32
2022-10-18T08:21:27.075Z,17.45
2022-10-18T08:24:15.080Z,17.50
2022-10-18T08:27:03.718Z,17.50
2022-10-18T08:29:52.053Z,16.94
2022-10-18T08:32:40.354Z,17.03
2022-10-18T08:35:28.518Z,17.10
2022-10-18T08:38:18.882Z,16.70
2022-10-18T08:41:57.943Z,16.78
2022-10-18T08:44:49.729Z,17.27
2022-10-18T08:47:49.384Z,17.20
2022-10-18T08:50:38.784Z,17.50
2022-10-18T08:53:43.567Z,17.31
2022-10-18T08:56:33.631Z,18.03
2022-10-18T08:59:24.731Z,18.69
2022-10-18T09:02:31.113Z,17.99
2022-10-18T09:05:32.407Z,18.25
2022-10-18T09:08:35.986Z,18.20
2022-10-18T09:11:35.681Z,18.28
2022-10-18T09:14:53.308Z,18.85
2022-10-18T09:18:17.699Z,19.51
2022-10-18T09:21:24.461Z,18.89
2022-10-18T09:26:37.657Z,18.33
2022-10-18T09:29:38.696Z,18.21
2022-10-18T09:32:47.511Z,18.04
2022-10-18T09:36:45.145Z,18.05
2022-10-18T09:40:23.583Z,17.81
2022-10-18T10:24:43.690Z,19.16
2022-10-18T10:28:30.256Z,18.56
2022-10-18T10:31:40.006Z,18.46
2022-10-18T10:35:04.797Z,18.29
2022-10-18T10:41:52.874Z,18.14
2022-10-18T10:50:21.844Z,19.44
2022-10-18T11:00:56.631Z,21.50
2022-10-18T11:03:55.911Z,21.91
2022-10-18T11:09:32.228Z,22.91
2022-10-18T13:12:35.525Z,21.81
2022-10-18T16:42:48.514Z,18.58
2022-10-18T16:48:46.427Z,18.52
2022-10-18T16:51:44.915Z,18.13
2022-10-18T16:54:38.665Z,17.59
2022-10-18T16:57:34.775Z,17.32
2022-10-18T17:00:24.961Z,17.41
2022-10-18T17:03:25.315Z,17.19
2022-10-18T17:06:24.487Z,17.01
2022-10-18T17:09:20.243Z,16.87
2022-10-18T17:12:14.814Z,16.87
2022-10-18T17:15:51.096Z,16.75
2022-10-18T17:18:54.818Z,16.75
2022-10-18T17:24:48.494Z,17.07
2022-10-18T17:27:36.953Z,16.86
2022-10-18T17:30:29.928Z,16.74
2022-10-18T17:33:20.384Z,16.81
2022-10-18T17:36:35.908Z,16.86
2022-10-18T17:39:32.428Z,16.95
2022-10-18T17:42:23.921Z,16.92
2022-10-18T17:45:12.818Z,16.80
2022-10-18T17:48:05.651Z,16.59
2022-10-18T17:50:56.342Z,16.49
2022-10-18T17:54:11.990Z,16.83
2022-10-18T17:57:24.688Z,16.65
2022-10-18T18:00:50.700Z,16.96
2022-10-18T18:04:08.926Z,16.50
2022-10-18T18:07:23.152Z,16.35
2022-10-18T18:10:25.136Z,16.48
2022-10-18T18:13:30.103Z,16.62
2022-10-18T18:16:29.567Z,16.56
2022-10-18T18:19:21.588Z,16.39
2022-10-18T18:22:26.167Z,16.33
2022-10-18T18:25:16.754Z,16.36
2022-10-18T18:28:47.599Z,16.30
2022-10-18T18:31:41.255Z,16.53
2022-10-18T18:34:36.110Z,16.59
2022-10-18T18:37:24.441Z,16.45
2022-10-18T18:40:18.481Z,16.52
2022-10-18T18:43:35.828Z,16.38
2022-10-18T18:46:40.811Z,16.29
2022-10-18T18:49:32.615Z,16.09
2022-10-18T18:52:28.289Z,16.10
2022-10-18T18:55:22.278Z,15.87
2022-10-18T18:58:16.088Z,15.79
2022-10-18T19:01:19.706Z,15.87
2022-10-18T19:04:17.755Z,15.74
2022-10-18T19:07:14.296Z,15.45
2022-10-18T19:10:06.221Z,15.37
2022-10-18T19:12:55.698Z,15.24
2022-10-18T19:15:50.113Z,15.33
2022-10-18T19:18:38.628Z,15.27
2022-10-18T19:21:34.127Z,15.21
2022-10-18T19:24:25.707Z,15.13
2022-10-18T19:27:24.570Z,15.01
2022-10-18T19:30:16.300Z,15.06
2022-10-18T19:33:15.558Z,15.16
2022-10-18T19:36:18.620Z,15.18
2022-10-18T19:39:13.346Z,15.18
2022-10-18T19:42:06.488Z,15.26
2022-10-18T19:44:57.439Z,15.52
2022-10-18T19:47:49.756Z,15.46
2022-10-18T19:50:38.333Z,15.65
2022-10-18T19:53:34.383Z,15.83
2022-10-18T19:56:55.011Z,15.90
2022-10-18T19:59:57.039Z,16.03
2022-10-18T20:02:50.787Z,16.07
2022-10-18T20:05:45.961Z,15.96
2022-10-18T20:08:44.227Z,15.68
2022-10-18T20:11:49.274Z,15.64
2022-10-18T20:14:37.638Z,15.62
2022-10-18T20:17:45.748Z,15.61
2022-10-18T20:20:43.342Z,15.82
2022-10-18T20:23:40.599Z,15.81
2022-10-18T20:26:29.024Z,15.80
2022-10-18T20:29:18.779Z,15.87
2022-10-18T20:32:14.023Z,15.95
2022-10-18T20:35:02.794Z,15.81
2022-10-18T20:37:51.138Z,15.46
2022-10-18T20:40:39.998Z,15.16
2022-10-18T20:43:31.426Z,15.29
2022-10-18T20:46:21.616Z,14.90
2022-10-18T20:49:16.392Z,14.91
2022-10-18T20:52:05.484Z,15.06
2022-10-18T20:54:54.413Z,15.29
2022-10-18T20:57:45.038Z,15.31
2022-10-18T21:00:36.455Z,15.21
2022-10-18T21:03:24.960Z,15.09
2022-10-18T21:06:18.774Z,14.94
2022-10-18T21:09:18.947Z,14.84
2022-10-18T21:12:07.226Z,14.69
2022-10-18T21:14:55.670Z,14.57
2022-10-18T21:17:52.730Z,14.45
2022-10-18T21:20:41.067Z,14.39
2022-10-18T21:23:29.158Z,14.27
2022-10-18T21:26:27.077Z,14.25
2022-10-18T21:29:21.578Z,14.24
2022-10-18T21:32:18.304Z,14.14
2022-10-18T21:35:07.197Z,14.10
2022-10-18T21:37:55.720Z,14.00
2022-10-18T21:40:49.204Z,14.01
2022-10-18T21:43:44.982Z,14.02
2022-10-18T21:46:33.377Z,13.94
2022-10-18T21:49:25.275Z,13.92
2022-10-18T21:52:15.862Z,13.98
2022-10-18T21:55:08.036Z,14.09
2022-10-18T21:57:56.362Z,14.07
2022-10-18T22:00:47.465Z,13.98
2022-10-18T22:03:40.226Z,13.91
2022-10-18T22:09:30.099Z,13.85
2022-10-18T22:12:18.485Z,13.88
2022-10-18T22:15:10.078Z,13.88
2022-10-18T22:18:05.432Z,13.90
2022-10-18T22:21:04.245Z,13.85
2022-10-18T22:24:05.355Z,13.71
2022-10-18T22:26:59.323Z,13.72
2022-10-18T22:29:47.607Z,13.68
2022-10-18T22:32:43.099Z,13.68
2022-10-18T22:35:34.694Z,13.72
2022-10-18T22:38:23.363Z,13.63
2022-10-18T22:41:12.846Z,13.58
2022-10-18T22:44:03.532Z,13.47
2022-10-18T22:47:00.281Z,13.52
2022-10-18T22:49:48.611Z,13.49
2022-10-18T22:52:36.844Z,13.48
2022-10-18T22:55:38.074Z,13.49
2022-10-18T22:58:26.768Z,13.47
2022-10-18T23:01:22.154Z,13.47
2022-10-18T23:04:17.952Z,13.32
2022-10-18T23:07:06.600Z,13.32
2022-10-18T23:09:55.498Z,13.27
2022-10-18T23:12:44.527Z,13.32
2022-10-18T23:15:34.232Z,13.29
2022-10-18T23:18:25.455Z,13.33
2022-10-18T23:21:17.500Z,13.30
2022-10-18T23:24:09.321Z,13.34
2022-10-18T23:26:57.646Z,13.27
2022-10-18T23:29:46.577Z,13.31
2022-10-18T23:32:35.839Z,13.13
2022-10-18T23:35:33.304Z,13.12
2022-10-18T23:38:26.146Z,13.10
2022-10-18T23:41:17.269Z,13.06
2022-10-18T23:44:11.424Z,13.04
2022-10-18T23:47:07.963Z,13.00
2022-10-18T23:50:03.141Z,12.93
2022-10-18T23:52:55.088Z,12.94
2022-10-18T23:56:01.221Z,12.97
2022-10-18T23:58:53.152Z,12.90
